createdAt,value
2022-12-16T00:00:51.039Z,99825.41
2022-12-16T00:03:30.046Z,99830.94
2022-12-16T00:06:06.252Z,99835.00
2022-12-16T00:08:36.187Z,99836.06
2022-12-16T00:11:07.882Z,99835.34
2022-12-16T00:13:37.422Z,99834.38
2022-12-16T00:16:10.140Z,99830.72
2022-12-16T00:18:43.253Z,99836.03
2022-12-16T00:21:18.833Z,99838.50
2022-12-16T00:23:47.275Z,99827.06
2022-12-16T00:26:15.954Z,99827.66
2022-12-16T00:28:46.549Z,99820.94
2022-12-16T00:31:18.166Z,99829.69
2022-12-16T00:33:49.753Z,99829.47
2022-12-16T00:36:18.361Z,99825.44
2022-12-16T00:38:46.233Z,99811.72
2022-12-16T00:41:16.238Z,99823.53
2022-12-16T00:43:44.071Z,99826.59
2022-12-16T00:46:18.091Z,99824.50
2022-12-16T00:48:47.389Z,99828.97
2022-12-16T00:51:15.277Z,99828.28
2022-12-16T00:53:43.011Z,99822.50
2022-12-16T00:56:12.466Z,99826.25
2022-12-16T00:58:40.344Z,99823.66
2022-12-16T01:01:09.146Z,99821.16
2022-12-16T01:03:37.590Z,99822.97
2022-12-16T01:06:10.676Z,99829.97
2022-12-16T01:08:38.270Z,99838.00
2022-12-16T01:11:06.159Z,99838.47
2022-12-16T01:13:34.398Z,99833.88
2022-12-16T01:16:02.905Z,99834.84
2022-12-16T01:18:30.490Z,99846.78
2022-12-16T01:21:03.808Z,99841.22
2022-12-16T01:23:33.521Z,99847.69
2022-12-16T01:26:02.499Z,99846.53
2022-12-16T01:28:30.694Z,99852.66
2022-12-16T01:31:02.116Z,99862.59
2022-12-16T01:33:30.917Z,99857.16
2022-12-16T01:36:02.325Z,99860.97
2022-12-16T01:38:30.447Z,99867.72
2022-12-16T01:40:59.711Z,99874.31
2022-12-16T01:43:29.451Z,99880.09
2022-12-16T01:46:00.383Z,99878.69
2022-12-16T01:48:35.614Z,99883.88
2022-12-16T01:51:07.145Z,99887.72
2022-12-16T01:53:37.180Z,99883.94
2022-12-16T01:56:06.919Z,99886.66
2022-12-16T01:58:36.180Z,99889.13
2022-12-16T02:01:04.383Z,99896.09
2022-12-16T02:03:35.249Z,99888.56
2022-12-16T02:06:03.557Z,99892.22
2022-12-16T02:08:31.360Z,99890.09
2022-12-16T02:11:12.479Z,99887.50
2022-12-16T02:13:50.204Z,99892.47
2022-12-16T02:16:22.258Z,99890.81
2022-12-16T02:18:54.768Z,99891.28
2022-12-16T02:21:39.478Z,99888.69
2022-12-16T02:24:36.352Z,99893.78
2022-12-16T02:27:40.934Z,99895.31
2022-12-16T02:30:41.611Z,99891.91
2022-12-16T02:33:22.170Z,99887.03
2022-12-16T02:35:54.886Z,99888.78
2022-12-16T02:38:25.257Z,99890.31
2022-12-16T02:40:56.894Z,99887.03
2022-12-16T02:43:45.590Z,99886.91
2022-12-16T02:46:14.604Z,99890.31
2022-12-16T02:48:42.201Z,99893.44
2022-12-16T02:51:10.392Z,99888.34
2022-12-16T02:53:40.208Z,99891.41
2022-12-16T02:56:18.464Z,99883.69
2022-12-16T02:58:48.815Z,99888.28
2022-12-16T03:01:22.514Z,99890.78
2022-12-16T03:03:55.980Z,99889.97
2022-12-16T03:06:24.983Z,99888.91
2022-12-16T03:08:55.289Z,99889.47
2022-12-16T03:11:23.058Z,99901.88
2022-12-16T03:13:52.805Z,99886.16
2022-12-16T03:16:22.970Z,99892.31
2022-12-16T03:18:54.964Z,99906.50
2022-12-16T03:21:23.657Z,99897.63
2022-12-16T03:23:58.607Z,99901.06
2022-12-16T03:26:29.906Z,99895.97
2022-12-16T03:29:02.293Z,99898.50
2022-12-16T03:31:39.510Z,99899.69
2022-12-16T03:34:12.595Z,99902.72
2022-12-16T03:36:40.920Z,99904.34
2022-12-16T03:39:09.962Z,99901.53
2022-12-16T03:41:37.774Z,99911.50
2022-12-16T03:44:05.652Z,99903.22
2022-12-16T03:46:34.614Z,99909.69
2022-12-16T03:49:02.375Z,99911.88
2022-12-16T03:51:29.922Z,99912.09
2022-12-16T03:53:57.553Z,99917.72
2022-12-16T03:56:25.100Z,99924.69
2022-12-16T03:58:52.654Z,99926.44
2022-12-16T04:01:20.553Z,99923.13
2022-12-16T04:03:49.611Z,99923.31
2022-12-16T04:06:18.833Z,99923.69
2022-12-16T04:08:46.852Z,99929.88
2022-12-16T04:11:32.044Z,99927.94
2022-12-16T04:14:17.361Z,99929.16
2022-12-16T04:17:14.145Z,99936.91
2022-12-16T04:20:04.612Z,99942.31
2022-12-16T04:22:52.783Z,99942.13
2022-12-16T04:25:22.699Z,99941.53
2022-12-16T04:27:50.336Z,99941.19
2022-12-16T04:30:19.961Z,99942.19
2022-12-16T04:33:05.901Z,99947.84
2022-12-16T04:35:52.444Z,99950.00
2022-12-16T04:38:37.697Z,99951.41
2022-12-16T04:41:23.096Z,99956.47
2022-12-16T04:44:08.413Z,99955.00
2022-12-16T04:46:53.813Z,99964.31
2022-12-16T04:49:39.223Z,99957.97
2022-12-16T04:52:25.886Z,99961.38
2022-12-16T04:55:11.211Z,99968.22
2022-12-16T04:57:58.941Z,99972.66
2022-12-16T05:00:49.651Z,99972.06
2022-12-16T05:03:35.515Z,99969.69
2022-12-16T05:06:20.961Z,99980.50
2022-12-16T05:09:07.558Z,99989.06
2022-12-16T05:11:52.572Z,99990.56
2022-12-16T05:14:37.891Z,99996.50
2022-12-16T05:17:23.176Z,100008.06
2022-12-16T05:20:09.008Z,100010.25
2022-12-16T05:22:59.831Z,100003.81
2022-12-16T05:25:55.315Z,100012.69
2022-12-16T05:28:40.410Z,100015.44
2022-12-16T05:31:25.697Z,100015.59
2022-12-16T05:34:10.992Z,100022.19
2022-12-16T05:36:56.228Z,100032.09
2022-12-16T05:39:41.552Z,100027.09
2022-12-16T05:42:28.345Z,100041.69
2022-12-16T05:45:13.572Z,100040.50
2022-12-16T05:47:58.902Z,100047.03
2022-12-16T05:50:44.063Z,100056.84
2022-12-16T05:53:29.475Z,100054.28
2022-12-16T05:56:14.654Z,100061.63
2022-12-16T05:59:01.172Z,100068.34
2022-12-16T06:01:45.859Z,100068.75
2022-12-16T06:04:31.214Z,100072.53
2022-12-16T06:07:16.447Z,100078.81
2022-12-16T06:10:01.762Z,100077.31
2022-12-16T06:12:47.048Z,100091.94
2022-12-16T06:15:33.782Z,100089.09
2022-12-16T06:18:19.118Z,100094.38
2022-12-16T06:21:15.907Z,100094.97
2022-12-16T06:24:01.269Z,100099.91
2022-12-16T06:26:46.583Z,100108.41
2022-12-16T06:29:31.754Z,100114.97
2022-12-16T06:32:18.213Z,100114.47
2022-12-16T06:35:03.683Z,100108.97
2022-12-16T06:37:48.871Z,100131.13
2022-12-16T06:40:34.182Z,100128.44
2022-12-16T06:43:19.437Z,100131.03
2022-12-16T06:46:00.891Z,100140.78
2022-12-16T06:48:47.477Z,100141.81
2022-12-16T06:51:32.665Z,100143.72
2022-12-16T06:54:17.895Z,100151.94
2022-12-16T06:57:03.094Z,100156.25
2022-12-16T06:59:48.517Z,100167.41
2022-12-16T07:02:33.995Z,100168.19
2022-12-16T07:05:20.484Z,100176.69
2022-12-16T07:08:06.828Z,100171.69
2022-12-16T07:10:52.074Z,100181.59
2022-12-16T07:13:40.447Z,100187.31
2022-12-16T07:16:25.819Z,100193.53
2022-12-16T07:19:11.160Z,100194.13
2022-12-16T07:21:57.796Z,100197.69
2022-12-16T07:24:57.640Z,100201.56
2022-12-16T07:27:42.855Z,100216.44
2022-12-16T07:30:29.356Z,100217.22
2022-12-16T07:33:29.140Z,100221.22
2022-12-16T07:36:14.432Z,100223.97
2022-12-16T07:39:01.033Z,100223.25
2022-12-16T07:41:46.415Z,100223.66
2022-12-16T07:44:31.853Z,100233.00
2022-12-16T07:47:17.223Z,100238.88
2022-12-16T07:50:02.615Z,100242.16
2022-12-16T07:52:47.822Z,100254.06
2022-12-16T07:55:34.696Z,100252.91
2022-12-16T07:58:20.107Z,100259.66
2022-12-16T08:01:09.394Z,100266.97
2022-12-16T08:03:55.194Z,100270.53
2022-12-16T08:06:41.062Z,100273.34
2022-12-16T08:09:26.404Z,100272.56
2022-12-16T08:12:13.090Z,100280.78
2022-12-16T08:14:58.352Z,100278.91
2022-12-16T08:17:43.868Z,100277.84
2022-12-16T08:20:29.494Z,100292.19
2022-12-16T08:23:14.856Z,100293.34
2022-12-16T08:25:56.323Z,100299.28
2022-12-16T08:28:45.277Z,100310.44
2022-12-16T08:31:30.347Z,100308.03
2022-12-16T08:34:15.622Z,100317.56
2022-12-16T08:37:00.898Z,100326.81
2022-12-16T08:39:51.311Z,100335.44
2022-12-16T08:42:49.937Z,100337.56
2022-12-16T08:45:39.726Z,100337.03
2022-12-16T08:48:25.551Z,100339.75
2022-12-16T08:51:10.730Z,100348.25
2022-12-16T08:53:55.834Z,100349.78
2022-12-16T08:56:44.540Z,100367.63
2022-12-16T08:59:30.027Z,100369.69
2022-12-16T09:02:13.217Z,100370.94
2022-12-16T09:04:58.670Z,100375.91
2022-12-16T09:07:44.087Z,100375.44
2022-12-16T09:10:31.231Z,100366.44
2022-12-16T09:13:24.505Z,100377.16
2022-12-16T09:16:14.277Z,100377.63
2022-12-16T09:19:04.388Z,100379.25
2022-12-16T09:21:49.555Z,100384.03
2022-12-16T09:24:38.925Z,100388.69
2022-12-16T09:27:24.321Z,100390.88
2022-12-16T09:30:09.574Z,100391.22
2022-12-16T09:32:59.739Z,100385.88
2022-12-16T09:35:46.401Z,100375.53
2022-12-16T09:38:31.839Z,100382.03
2022-12-16T09:41:44.737Z,100396.31
2022-12-16T09:44:38.745Z,100391.56
2022-12-16T09:47:28.978Z,100389.00
2022-12-16T09:50:20.969Z,100386.75
2022-12-16T09:53:12.423Z,100393.56
2022-12-16T09:55:59.408Z,100387.00
2022-12-16T09:58:46.560Z,100388.25
2022-12-16T10:01:32.471Z,100391.06
2022-12-16T10:04:17.616Z,100385.59
2022-12-16T10:07:04.729Z,100393.72
2022-12-16T10:09:59.233Z,100385.09
2022-12-16T10:12:57.489Z,100388.50
2022-12-16T10:16:02.007Z,100389.56
2022-12-16T10:18:57.747Z,100393.97
2022-12-16T10:21:47.155Z,100382.97
2022-12-16T10:24:42.549Z,100386.78
2022-12-16T10:27:32.649Z,100395.09
2022-12-16T10:30:18.924Z,100396.25
2022-12-16T10:33:05.977Z,100389.81
2022-12-16T10:35:55.560Z,100396.59
2022-12-16T10:38:42.511Z,100413.97
2022-12-16T10:41:28.322Z,100404.91
2022-12-16T10:44:16.039Z,100404.13
2022-12-16T10:47:01.408Z,100403.16
2022-12-16T10:49:52.311Z,100408.91
2022-12-16T10:52:39.963Z,100409.69
2022-12-16T10:55:34.155Z,100412.59
2022-12-16T10:58:25.154Z,100411.09
2022-12-16T11:01:11.491Z,100408.97
2022-12-16T11:03:58.228Z,100414.81
2022-12-16T11:06:45.505Z,100404.91
2022-12-16T11:09:41.525Z,100413.72
2022-12-16T11:12:39.104Z,100404.50
2022-12-16T11:15:42.299Z,100405.00
2022-12-16T11:18:31.716Z,100410.47
2022-12-16T11:21:30.811Z,100409.78
2022-12-16T11:24:33.370Z,100410.47
2022-12-16T11:27:19.672Z,100418.13
2022-12-16T11:30:09.165Z,100412.91
2022-12-16T11:32:56.229Z,100421.00
2022-12-16T11:35:46.448Z,100425.41
2022-12-16T11:38:36.119Z,100415.31
2022-12-16T11:41:28.053Z,100419.50
2022-12-16T11:48:47.435Z,100424.50
2022-12-16T11:51:14.766Z,100429.63
2022-12-16T11:54:04.329Z,100433.66
2022-12-16T11:56:53.119Z,100429.78
2022-12-16T11:59:44.459Z,100431.78
2022-12-16T12:02:38.994Z,100431.78
2022-12-16T12:05:24.489Z,100450.22
2022-12-16T12:08:15.394Z,100447.47
2022-12-16T12:11:21.297Z,100451.50
2022-12-16T12:14:18.198Z,100448.44
2022-12-16T12:17:13.090Z,100453.31
2022-12-16T12:20:07.413Z,100450.81
2022-12-16T12:22:54.874Z,100460.78
2022-12-16T12:25:48.370Z,100460.91
2022-12-16T12:28:50.825Z,100470.91
2022-12-16T12:31:55.913Z,100469.13
2022-12-16T12:34:46.029Z,100474.59
2022-12-16T12:37:36.687Z,100474.47
2022-12-16T12:40:32.780Z,100473.63
2022-12-16T12:43:21.008Z,100471.75
2022-12-16T12:46:13.662Z,100479.72
2022-12-16T12:49:03.174Z,100478.41
2022-12-16T12:51:54.071Z,100487.19
2022-12-16T12:54:52.467Z,100483.28
2022-12-16T12:57:50.139Z,100479.38
2022-12-16T13:00:49.408Z,100486.97
2022-12-16T13:03:41.211Z,100497.44
2022-12-16T13:06:31.435Z,100497.03
2022-12-16T13:09:18.036Z,100495.53
2022-12-16T13:12:41.051Z,100497.31
2022-12-16T13:15:29.665Z,100495.78
2022-12-16T13:18:51.316Z,100501.84
2022-12-16T13:22:03.696Z,100508.84
2022-12-16T13:24:56.069Z,100511.56
2022-12-16T13:27:41.862Z,100500.06
2022-12-16T13:30:39.604Z,100503.38
2022-12-16T13:33:31.885Z,100514.69
2022-12-16T13:36:18.408Z,100513.63
2022-12-16T13:39:06.749Z,100510.31
2022-12-16T13:42:09.023Z,100522.41
2022-12-16T13:45:16.491Z,100528.59
2022-12-16T13:48:18.159Z,100538.34
2022-12-16T13:51:04.653Z,100536.81
2022-12-16T13:53:51.443Z,100547.13
2022-12-16T13:56:42.363Z,100559.03
2022-12-16T13:59:34.374Z,100552.38
2022-12-16T14:02:22.480Z,100557.94
2022-12-16T14:05:10.388Z,100562.22
2022-12-16T14:08:03.079Z,100561.25
2022-12-16T14:10:50.215Z,100555.91
2022-12-16T14:13:40.117Z,100568.06
2022-12-16T14:16:31.381Z,100572.31
2022-12-16T14:19:30.247Z,100569.72
2022-12-16T14:22:28.100Z,100580.91
2022-12-16T14:25:27.861Z,100584.94
2022-12-16T14:28:15.997Z,100596.72
2022-12-16T14:31:05.502Z,100591.53
2022-12-16T14:33:53.376Z,100598.78
2022-12-16T14:36:42.257Z,100598.66
2022-12-16T14:39:33.751Z,100605.47
2022-12-16T14:42:19.038Z,100610.28
2022-12-16T14:45:05.046Z,100615.03
2022-12-16T14:47:56.226Z,100621.19
2022-12-16T14:50:45.602Z,100614.19
2022-12-16T14:53:36.601Z,100613.44
2022-12-16T14:56:34.742Z,100621.66
2022-12-16T14:59:27.669Z,100630.22
2022-12-16T15:02:14.660Z,100627.59
2022-12-16T15:05:07.662Z,100629.72
2022-12-16T15:07:54.733Z,100644.91
2022-12-16T15:10:45.242Z,100653.66
2022-12-16T15:13:42.467Z,100661.72
2022-12-16T15:16:34.329Z,100662.41
2022-12-16T15:19:20.467Z,100662.00
2022-12-16T15:22:07.167Z,100667.66
2022-12-16T15:24:54.410Z,100665.69
2022-12-16T15:27:43.746Z,100675.19
2022-12-16T15:30:56.198Z,100689.19
2022-12-16T15:33:42.512Z,100694.63
2022-12-16T15:36:46.420Z,100689.72
2022-12-16T15:39:53.474Z,100691.72
2022-12-16T15:42:46.034Z,100696.72
2022-12-16T15:45:40.554Z,100701.97
2022-12-16T15:48:32.240Z,100700.09
2022-12-16T15:51:17.547Z,100712.31
2022-12-16T15:54:10.249Z,100712.97
2022-12-16T15:57:04.145Z,100714.81
2022-12-16T15:59:51.185Z,100722.88
2022-12-16T16:02:40.563Z,100719.88
2022-12-16T16:05:30.838Z,100718.19
2022-12-16T16:08:21.662Z,100732.91
2022-12-16T16:11:10.623Z,100729.78
2022-12-16T16:14:04.257Z,100729.66
2022-12-16T16:16:51.536Z,100731.75
2022-12-16T16:19:41.625Z,100741.47
2022-12-16T16:22:29.959Z,100750.13
2022-12-16T16:25:17.316Z,100754.41
2022-12-16T16:28:02.444Z,100750.75
2022-12-16T16:30:49.091Z,100756.91
2022-12-16T16:33:34.682Z,100755.84
2022-12-16T16:36:20.247Z,100756.59
2022-12-16T16:39:17.055Z,100770.47
2022-12-16T16:42:02.007Z,100766.94
2022-12-16T16:44:47.702Z,100768.81
2022-12-16T16:47:37.153Z,100777.25
2022-12-16T16:50:23.145Z,100781.50
2022-12-16T16:53:08.370Z,100782.13
2022-12-16T16:55:56.363Z,100787.91
2022-12-16T16:58:45.273Z,100785.28
2022-12-16T17:01:31.371Z,100790.91
2022-12-16T17:04:18.178Z,100788.59
2022-12-16T17:07:09.298Z,100797.59
2022-12-16T17:10:04.681Z,100794.66
2022-12-16T17:12:51.720Z,100815.31
2022-12-16T17:15:40.089Z,100812.81
2022-12-16T17:18:27.817Z,100812.25
2022-12-16T17:21:14.474Z,100817.59
2022-12-16T17:24:00.563Z,100818.44
2022-12-16T17:26:47.981Z,100825.41
2022-12-16T17:29:46.172Z,100823.16
2022-12-16T17:32:31.326Z,100832.50
2022-12-16T17:35:16.945Z,100847.72
2022-12-16T17:38:03.582Z,100847.09
2022-12-16T17:40:48.825Z,100847.19
2022-12-16T17:43:34.463Z,100854.56
2022-12-16T17:46:21.061Z,100854.75
2022-12-16T17:49:11.714Z,100851.13
2022-12-16T17:51:59.498Z,100863.09
2022-12-16T17:54:49.897Z,100863.44
2022-12-16T17:57:35.396Z,100864.63
2022-12-16T18:00:20.931Z,100871.31
2022-12-16T18:03:06.864Z,100873.34
2022-12-16T18:05:52.402Z,100877.78
2022-12-16T18:08:37.545Z,100884.91
2022-12-16T18:11:24.111Z,100888.59
2022-12-16T18:14:09.412Z,100885.19
2022-12-16T18:16:54.854Z,100881.50
2022-12-16T18:19:44.000Z,100888.25
2022-12-16T18:22:31.605Z,100883.56
2022-12-16T18:25:19.134Z,100890.44
2022-12-16T18:28:05.937Z,100897.69
2022-12-16T18:30:51.383Z,100903.59
2022-12-16T18:33:36.982Z,100896.34
2022-12-16T18:36:24.883Z,100908.63
2022-12-16T18:39:10.272Z,100909.66
2022-12-16T18:42:00.452Z,100916.50
2022-12-16T18:44:57.532Z,100915.69
2022-12-16T18:47:52.312Z,100934.56
2022-12-16T18:50:38.364Z,100934.50
2022-12-16T18:53:23.956Z,100929.16
2022-12-16T18:56:19.212Z,100924.06
2022-12-16T18:59:04.761Z,100927.94
2022-12-16T19:01:51.491Z,100935.44
2022-12-16T19:04:38.363Z,100940.84
2022-12-16T19:07:23.755Z,100943.66
2022-12-16T19:10:09.111Z,100947.75
2022-12-16T19:12:56.017Z,100959.25
2022-12-16T19:15:41.935Z,100960.28
2022-12-16T19:18:30.003Z,100962.53
2022-12-16T19:21:15.642Z,100967.66
2022-12-16T19:24:01.528Z,100970.19
2022-12-16T19:26:46.830Z,100977.97
2022-12-16T19:29:32.419Z,100988.03
2022-12-16T19:32:17.764Z,100985.19
2022-12-16T19:35:04.580Z,100979.44
2022-12-16T19:37:50.263Z,100984.38
2022-12-16T19:40:35.451Z,100985.75
2022-12-16T19:43:22.016Z,100987.50
2022-12-16T19:46:11.258Z,100989.56
2022-12-16T19:49:04.527Z,100994.19
2022-12-16T19:51:51.764Z,101008.94
2022-12-16T19:54:37.168Z,101010.53
2022-12-16T19:57:22.701Z,101010.91
2022-12-16T20:00:07.819Z,101010.84
2022-12-16T20:02:56.563Z,101018.75
2022-12-16T20:05:42.390Z,101018.94
2022-12-16T20:08:29.069Z,101016.81
2022-12-16T20:11:14.589Z,101029.44
2022-12-16T20:13:59.785Z,101034.72
2022-12-16T20:16:45.153Z,101033.41
2022-12-16T20:19:30.668Z,101038.22
2022-12-16T20:22:16.646Z,101037.38
2022-12-16T20:25:03.384Z,101045.50
2022-12-16T20:28:00.092Z,101049.78
2022-12-16T20:30:45.242Z,101053.81
2022-12-16T20:33:31.388Z,101045.69
2022-12-16T20:36:16.697Z,101059.72
2022-12-16T20:39:02.184Z,101055.47
2022-12-16T20:41:49.094Z,101052.03
2022-12-16T20:44:34.369Z,101063.16
2022-12-16T20:47:20.083Z,101067.78
2022-12-16T20:50:05.191Z,101072.50
2022-12-16T20:52:50.352Z,101076.09
2022-12-16T20:55:38.670Z,101074.91
2022-12-16T20:58:25.150Z,101088.72
2022-12-16T21:01:10.892Z,101095.91
2022-12-16T21:03:56.649Z,101100.84
2022-12-16T21:06:42.128Z,101103.78
2022-12-16T21:09:27.739Z,101109.06
2022-12-16T21:12:13.022Z,101104.13
2022-12-16T21:14:59.429Z,101112.34
2022-12-16T21:17:44.742Z,101118.38
2022-12-16T21:20:30.099Z,101116.72
2022-12-16T21:23:27.365Z,101124.28
2022-12-16T21:26:12.826Z,101120.94
2022-12-16T21:28:58.127Z,101136.41
2022-12-16T21:31:52.065Z,101136.16
2022-12-16T21:34:38.682Z,101129.84
2022-12-16T21:37:24.544Z,101130.56
2022-12-16T21:40:09.603Z,101134.28
2022-12-16T21:42:56.369Z,101146.16
2022-12-16T21:45:41.866Z,101141.44
2022-12-16T21:48:32.919Z,101153.81
2022-12-16T21:51:18.160Z,101152.97
2022-12-16T21:54:08.015Z,101160.22
2022-12-16T21:56:56.476Z,101152.47
2022-12-16T21:59:44.801Z,101161.69
2022-12-16T22:02:31.081Z,101175.16
2022-12-16T22:05:20.680Z,101175.47
2022-12-16T22:08:06.161Z,101169.81
2022-12-16T22:10:51.459Z,101181.94
2022-12-16T22:13:37.863Z,101180.88
2022-12-16T22:16:24.104Z,101194.75
2022-12-16T22:19:11.793Z,101180.50
2022-12-16T22:22:00.169Z,101189.34
2022-12-16T22:24:46.648Z,101198.59
2022-12-16T22:27:33.362Z,101202.75
2022-12-16T22:30:18.427Z,101195.69
2022-12-16T22:33:05.086Z,101201.72
2022-12-16T22:35:50.461Z,101207.91
2022-12-16T22:38:37.149Z,101210.50
2022-12-16T22:41:23.911Z,101218.44
2022-12-16T22:44:09.289Z,101217.72
2022-12-16T22:50:11.352Z,101222.38
2022-12-16T22:52:58.626Z,101227.53
2022-12-16T22:56:01.932Z,101227.81
2022-12-16T22:58:57.220Z,101241.47
2022-12-16T23:01:42.729Z,101243.16
2022-12-16T23:04:29.041Z,101245.56
2022-12-16T23:07:14.169Z,101242.22
2022-12-16T23:10:02.716Z,101254.38
2022-12-16T23:12:49.061Z,101251.84
2022-12-16T23:15:34.506Z,101249.31
2022-12-16T23:18:21.920Z,101264.72
2022-12-16T23:21:07.959Z,101258.53
2022-12-16T23:23:53.664Z,101262.25
2022-12-16T23:26:42.501Z,101281.22
2022-12-16T23:29:29.064Z,101272.59
2022-12-16T23:32:14.531Z,101276.91
2022-12-16T23:35:00.017Z,101279.53
2022-12-16T23:37:45.323Z,101280.13
2022-12-16T23:40:30.456Z,101289.31
2022-12-16T23:43:18.139Z,101283.94
2022-12-16T23:46:04.738Z,101283.19
2022-12-16T23:48:50.035Z,101285.34
2022-12-16T23:51:35.226Z,101296.69
2022-12-16T23:54:20.498Z,101302.41
2022-12-16T23:57:05.865Z,101303.06
2022-12-16T23:59:51.074Z,101298.41
